Time;durP1;ratioP1;P1;durP2;ratioP2;P2;SDS_P1;SDS_P2;PMS_P1;PMS_P2;Temp;Humidity;BMP_temperature;BMP_pressure;BME280_temperature;BME280_humidity;BME280_pressure;Samples;Min_cycle;Max_cycle;Signal;HPM_P1;HPM_P2
2023/05/23 00:01:36;;;;;;;21.60;17.95;;;;;;;-144.73;100.00;54298.91;5049427;28;20037;-72
2023/05/23 00:04:02;;;;;;;17.42;14.48;;;;;;;-144.73;100.00;54296.88;5049651;28;20155;-72
2023/05/23 00:06:27;;;;;;;21.10;17.17;;;;;;;-144.73;100.00;54366.66;5050555;28;20108;-73
2023/05/23 00:08:53;;;;;;;22.48;14.10;;;;;;;-144.73;100.00;54350.22;5050060;28;20040;-73
2023/05/23 00:11:19;;;;;;;22.10;15.50;;;;;;;-144.73;100.00;54309.19;5049196;28;20033;-73
2023/05/23 00:13:45;;;;;;;22.88;15.90;;;;;;;-144.73;100.00;54342.03;5049515;28;20018;-73
2023/05/23 00:16:10;;;;;;;26.77;18.80;;;;;;;-144.73;100.00;54358.44;5049240;28;20040;-73
2023/05/23 00:18:36;;;;;;;29.95;18.58;;;;;;;-144.73;100.00;54333.81;5049826;28;20029;-73
2023/05/23 00:21:02;;;;;;;23.27;16.55;;;;;;;-144.73;100.00;54317.38;5049846;28;20040;-73
2023/05/23 00:23:28;;;;;;;26.20;17.92;;;;;;;-144.73;100.00;54337.91;5049819;28;20025;-73
2023/05/23 00:25:54;;;;;;;27.52;20.50;;;;;;;-144.73;100.00;54354.34;5049071;28;20068;-73
2023/05/23 00:28:20;;;;;;;39.15;24.92;;;;;;;-144.73;100.00;54346.13;5049679;28;20031;-73
2023/05/23 00:30:50;;;;;;;37.53;25.23;;;;;;;-144.73;100.00;54337.91;5048609;28;20029;-73
2023/05/23 00:33:16;;;;;;;34.60;25.13;;;;;;;-144.73;100.00;54333.81;5049507;28;20025;-74
2023/05/23 00:35:41;;;;;;;31.30;23.33;;;;;;;-144.73;100.00;54333.81;5049846;28;20037;-74
2023/05/23 00:38:07;;;;;;;26.98;19.33;;;;;;;-144.73;100.00;54368.69;5050283;28;20028;-74
2023/05/23 00:40:33;;;;;;;30.63;21.52;;;;;;;-144.73;100.00;54339.97;5048535;28;20033;-74
2023/05/23 00:42:59;;;;;;;27.17;19.27;;;;;;;-144.73;100.00;54321.50;5049191;28;20021;-74
2023/05/23 00:45:25;;;;;;;34.80;22.17;;;;;;;-144.73;100.00;54305.06;5049156;28;20043;-74
2023/05/23 00:47:51;;;;;;;32.10;21.83;;;;;;;-144.73;100.00;54354.34;5049104;28;20026;-74
2023/05/23 00:50:17;;;;;;;28.52;21.75;;;;;;;-144.73;100.00;54366.66;5048507;28;20025;-74
2023/05/23 00:52:44;;;;;;;30.92;21.02;;;;;;;-144.73;100.00;54350.22;5049294;28;20083;-74
2023/05/23 00:55:10;;;;;;;34.78;23.02;;;;;;;-144.73;100.00;54321.50;5049624;28;20037;-74
2023/05/23 00:57:43;;;;;;;29.25;20.38;;;;;;;-144.73;100.00;54337.91;5048609;28;20070;-74
2023/05/23 01:00:10;;;;;;;29.40;20.67;;;;;;;-144.73;100.00;54346.13;5048886;28;20125;-74
2023/05/23 01:02:54;;;;;;;49.35;31.20;;;;;;;-144.73;100.00;54344.06;5049037;28;20024;-74
2023/05/23 01:05:21;;;;;;;31.27;23.40;;;;;;;-144.73;100.00;54391.28;5048819;28;20120;-74
2023/05/23 01:07:48;;;;;;;31.05;23.33;;;;;;;-144.73;100.00;54333.81;5050291;28;20052;-74
2023/05/23 01:10:16;;;;;;;37.80;23.25;;;;;;;-144.73;100.00;54358.44;5051267;28;20079;-74
2023/05/23 01:12:52;;;;;;;37.63;22.17;;;;;;;-144.73;100.00;54325.59;5053151;28;20044;-74
2023/05/23 01:15:20;;;;;;;28.20;22.00;;;;;;;-144.73;100.00;54335.88;5054187;28;20045;-73
2023/05/23 01:17:58;;;;;;;26.42;19.65;;;;;;;-144.73;100.00;54309.19;5052846;28;20029;-73
2023/05/23 01:20:30;;;;;;;58.42;32.10;;;;;;;-144.73;100.00;54342.03;5052637;28;20033;-73
2023/05/23 01:23:01;;;;;;;34.28;24.80;;;;;;;-144.73;100.00;54362.53;5054142;28;20104;-73
2023/05/23 01:25:38;;;;;;;44.05;31.08;;;;;;;-144.73;100.00;54321.50;5052795;28;20036;-74
2023/05/23 01:28:11;;;;;;;42.45;26.42;;;;;;;-144.73;100.00;54342.03;5052843;28;20112;-73
2023/05/23 01:30:39;;;;;;;43.40;30.00;;;;;;;-144.73;100.00;54337.91;5052904;28;20025;-73
2023/05/23 01:33:07;;;;;;;46.67;31.38;;;;;;;-144.73;100.00;54354.34;5052368;28;20101;-73
2023/05/23 01:35:32;;;;;;;46.00;28.15;;;;;;;-144.73;100.00;54362.53;5053660;28;20040;-73
2023/05/23 01:37:58;;;;;;;36.63;26.77;;;;;;;-144.73;100.00;54329.72;5054468;28;20036;-73
2023/05/23 01:40:24;;;;;;;48.63;34.20;;;;;;;-144.73;100.00;54342.03;5053149;28;20097;-73
2023/05/23 01:42:52;;;;;;;41.90;27.30;;;;;;;-144.73;100.00;54331.75;5052643;28;20021;-73
2023/05/23 01:45:19;;;;;;;32.28;25.95;;;;;;;-144.73;100.00;54329.72;5052383;28;20033;-74
2023/05/23 01:47:47;;;;;;;43.20;28.13;;;;;;;-144.73;100.00;54333.81;5053403;28;20021;-73
2023/05/23 01:50:13;;;;;;;55.08;37.15;;;;;;;-144.73;100.00;54325.59;5051796;28;20029;-73
2023/05/23 01:52:39;;;;;;;45.65;30.23;;;;;;;-144.73;100.00;54350.22;5052466;28;20028;-73
2023/05/23 01:55:08;;;;;;;42.05;28.15;;;;;;;-144.73;100.00;54356.38;5051732;28;20562;-72
2023/05/23 01:57:39;;;;;;;43.72;28.75;;;;;;;-144.73;100.00;54342.03;5052410;28;20383;-72
2023/05/23 02:00:05;;;;;;;40.97;26.83;;;;;;;-144.73;100.00;54354.34;5051868;28;20094;-72
2023/05/23 02:02:32;;;;;;;67.75;38.20;;;;;;;-144.73;100.00;54362.53;5052460;28;20167;-72
2023/05/23 02:04:58;;;;;;;34.92;24.58;;;;;;;-144.73;100.00;54329.72;5051448;28;20037;-72
2023/05/23 02:07:24;;;;;;;57.80;33.03;;;;;;;-144.73;100.00;54317.38;5054013;28;20021;-74
2023/05/23 02:09:49;;;;;;;44.85;31.40;;;;;;;-144.73;100.00;54333.81;5052505;28;20024;-74
2023/05/23 02:12:14;;;;;;;60.28;38.10;;;;;;;-144.73;100.00;54337.91;5052284;28;20163;-74
2023/05/23 02:14:41;;;;;;;66.40;43.33;;;;;;;-144.73;100.00;54350.22;5053206;28;20024;-74
2023/05/23 02:17:08;;;;;;;76.43;54.50;;;;;;;-144.73;100.00;54339.97;5052119;28;20027;-74
2023/05/23 02:19:34;;;;;;;112.28;69.05;;;;;;;-144.73;100.00;54342.03;5051486;28;20039;-72
2023/05/23 02:22:00;;;;;;;135.25;85.05;;;;;;;-144.73;100.00;54358.44;5050518;28;20029;-73
2023/05/23 02:24:25;;;;;;;127.57;83.78;;;;;;;-144.73;100.00;54358.44;5053097;28;20067;-73
2023/05/23 02:26:51;;;;;;;94.25;67.65;;;;;;;-144.73;100.00;54366.66;5051624;28;20033;-73
2023/05/23 02:29:17;;;;;;;110.32;77.35;;;;;;;-144.73;100.00;54383.06;5051352;28;20029;-73
2023/05/23 02:31:42;;;;;;;120.18;84.15;;;;;;;-144.73;100.00;54313.28;5051745;28;20030;-73
2023/05/23 02:34:07;;;;;;;125.90;88.13;;;;;;;-144.73;100.00;54352.28;5051031;28;20037;-73
2023/05/23 02:36:33;;;;;;;134.90;91.70;;;;;;;-144.73;100.00;54333.81;5049852;28;20033;-72
2023/05/23 02:38:58;;;;;;;145.85;93.20;;;;;;;-144.73;100.00;54358.44;5050358;28;20025;-73
2023/05/23 02:41:23;;;;;;;164.43;98.13;;;;;;;-144.73;100.00;54383.06;5049753;28;20068;-72
2023/05/23 02:43:49;;;;;;;132.73;85.85;;;;;;;-144.73;100.00;54362.53;5050665;28;20025;-72
2023/05/23 02:46:14;;;;;;;152.38;94.55;;;;;;;-144.73;100.00;54331.75;5049370;28;20119;-72
2023/05/23 02:48:39;;;;;;;170.93;104.78;;;;;;;-144.73;100.00;54374.84;5050524;28;20024;-71
2023/05/23 02:51:05;;;;;;;159.75;94.75;;;;;;;-144.73;100.00;54356.38;5050625;28;20060;-71
2023/05/23 02:53:30;;;;;;;181.88;104.22;;;;;;;-144.73;100.00;54362.53;5050039;28;20110;-71
2023/05/23 02:55:56;;;;;;;184.75;106.80;;;;;;;-144.73;100.00;54346.13;5047514;28;20037;-71
2023/05/23 02:58:21;;;;;;;173.40;97.88;;;;;;;-144.73;100.00;54378.97;5050000;28;20044;-71
2023/05/23 03:00:46;;;;;;;189.07;107.30;;;;;;;-144.73;100.00;54411.81;5049331;28;20036;-71
2023/05/23 03:03:12;;;;;;;195.85;99.63;;;;;;;-144.73;100.00;54362.53;5050864;28;20028;-71
2023/05/23 03:05:37;;;;;;;175.98;93.20;;;;;;;-144.73;100.00;54354.34;5048861;28;20035;-71
2023/05/23 03:08:02;;;;;;;192.30;100.43;;;;;;;-144.73;100.00;54358.44;5050221;28;20092;-71
2023/05/23 03:10:28;;;;;;;192.30;98.90;;;;;;;-144.73;100.00;54354.34;5049976;28;20029;-71
2023/05/23 03:12:53;;;;;;;205.93;104.93;;;;;;;-144.73;100.00;54407.69;5048484;28;20565;-71
2023/05/23 03:15:18;;;;;;;185.48;93.07;;;;;;;-144.73;100.00;54407.69;5050281;28;20128;-72
2023/05/23 03:17:44;;;;;;;202.07;102.25;;;;;;;-144.73;100.00;54346.13;5050016;28;20032;-72
2023/05/23 03:20:10;;;;;;;186.68;93.10;;;;;;;-144.73;100.00;54370.75;5050710;28;20063;-71
2023/05/23 03:22:35;;;;;;;201.02;98.03;;;;;;;-144.73;100.00;54362.53;5049029;28;20108;-71
2023/05/23 03:25:01;;;;;;;188.10;95.10;;;;;;;-144.73;100.00;54378.97;5049206;28;20029;-72
2023/05/23 03:27:26;;;;;;;196.15;89.85;;;;;;;-144.73;100.00;54407.69;5048376;28;20043;-72
2023/05/23 03:29:51;;;;;;;181.85;87.18;;;;;;;-144.73;100.00;54407.69;5049094;28;20024;-71
2023/05/23 03:32:17;;;;;;;183.88;88.63;;;;;;;-144.73;100.00;54374.84;5048930;28;20031;-71
2023/05/23 03:34:42;;;;;;;185.63;87.72;;;;;;;-144.73;100.00;54378.97;5067287;28;20059;-70
2023/05/23 03:37:08;;;;;;;169.88;81.97;;;;;;;-144.73;100.00;54364.59;5063770;28;20081;-71
2023/05/23 03:39:33;;;;;;;184.07;83.90;;;;;;;-144.73;100.00;54370.75;5072247;28;20024;-71
2023/05/23 03:41:58;;;;;;;144.30;70.18;;;;;;;-144.73;100.00;54387.19;5071651;28;20035;-71
2023/05/23 03:44:24;;;;;;;143.00;67.40;;;;;;;-144.73;100.00;54366.66;5083885;28;20024;-71
2023/05/23 03:46:49;;;;;;;124.93;63.67;;;;;;;-144.73;100.00;54352.28;5070673;28;20036;-71
2023/05/23 03:49:14;;;;;;;122.15;58.65;;;;;;;-144.73;100.00;54362.53;5072838;28;20024;-71
2023/05/23 03:51:40;;;;;;;108.18;59.50;;;;;;;-144.73;100.00;54350.22;5068469;28;20510;-71
2023/05/23 03:54:05;;;;;;;127.18;60.33;;;;;;;-144.73;100.00;54378.97;5089530;28;20111;-71
2023/05/23 03:56:30;;;;;;;110.72;64.35;;;;;;;-144.73;100.00;54362.53;5090236;28;20119;-70
2023/05/23 03:58:56;;;;;;;123.40;64.75;;;;;;;-144.73;100.00;54383.06;5094253;28;20020;-71
2023/05/23 04:01:21;;;;;;;102.97;56.85;;;;;;;-144.73;100.00;54370.75;5072732;28;20089;-71
2023/05/23 04:03:47;;;;;;;105.63;56.63;;;;;;;-144.73;100.00;54358.44;5079589;28;20024;-71
2023/05/23 04:06:13;;;;;;;100.40;54.80;;;;;;;-144.73;100.00;54354.34;5089272;28;20048;-71
2023/05/23 04:08:40;;;;;;;113.43;56.10;;;;;;;-144.73;100.00;54376.91;5072721;28;20064;-70
2023/05/23 04:11:06;;;;;;;101.93;51.40;;;;;;;-144.73;100.00;54358.44;5072194;28;20036;-71
2023/05/23 04:13:32;;;;;;;110.25;56.45;;;;;;;-144.73;100.00;54407.69;5072261;28;20060;-70
2023/05/23 04:16:00;;;;;;;112.07;60.35;;;;;;;-144.73;100.00;54376.91;5071713;28;20032;-70
2023/05/23 04:18:27;;;;;;;106.40;55.40;;;;;;;-144.73;100.00;54354.34;5090739;28;20079;-70
2023/05/23 04:20:53;;;;;;;103.55;58.20;;;;;;;-144.73;100.00;54354.34;5072118;28;20024;-71
2023/05/23 04:23:18;;;;;;;102.05;54.92;;;;;;;-144.73;100.00;54378.97;5087824;28;20031;-70
2023/05/23 04:25:44;;;;;;;112.40;62.97;;;;;;;-144.73;100.00;54436.44;5072584;28;20024;-70
2023/05/23 04:28:10;;;;;;;116.05;64.95;;;;;;;-144.73;100.00;54346.13;5072537;28;20081;-70
2023/05/23 04:30:36;;;;;;;128.80;69.28;;;;;;;-144.73;100.00;54354.34;5071986;28;20039;-70
2023/05/23 04:33:01;;;;;;;131.93;68.68;;;;;;;-144.73;100.00;54395.38;5090295;28;20012;-70
2023/05/23 04:35:32;;;;;;;119.15;61.28;;;;;;;-144.73;100.00;54415.91;5072283;28;20115;-71
2023/05/23 04:37:58;;;;;;;123.57;65.13;;;;;;;-144.73;100.00;54374.84;5072655;28;20028;-70
2023/05/23 04:40:23;;;;;;;135.60;65.55;;;;;;;-144.73;100.00;54366.66;5071424;28;20059;-71
2023/05/23 04:42:50;;;;;;;130.60;67.07;;;;;;;-144.73;100.00;54374.84;5072258;28;20081;-72
2023/05/23 04:45:16;;;;;;;123.75;62.75;;;;;;;-144.73;100.00;54395.38;5072024;28;20059;-72
2023/05/23 04:47:43;;;;;;;119.18;61.38;;;;;;;-144.73;100.00;54383.06;5073066;28;20024;-70
2023/05/23 04:50:09;;;;;;;127.60;63.17;;;;;;;-144.73;100.00;54372.81;5072086;28;20027;-70
2023/05/23 04:52:35;;;;;;;136.77;62.38;;;;;;;-144.73;100.00;54399.50;5072160;28;20043;-70
2023/05/23 04:55:00;;;;;;;135.30;64.35;;;;;;;-144.73;100.00;54383.06;5078283;28;20055;-70
2023/05/23 04:57:26;;;;;;;143.00;67.85;;;;;;;-144.73;100.00;54407.69;5100401;28;20020;-70
2023/05/23 04:59:51;;;;;;;151.82;69.15;;;;;;;-144.73;100.00;54358.44;5071900;28;20023;-70
2023/05/23 05:02:17;;;;;;;163.90;71.60;;;;;;;-144.73;100.00;54378.97;5072402;28;20111;-70
2023/05/23 05:04:43;;;;;;;169.93;73.38;;;;;;;-144.73;100.00;54362.53;5072300;28;20034;-70
2023/05/23 05:07:08;;;;;;;156.70;72.90;;;;;;;-144.73;100.00;54364.59;5090305;28;20107;-70
2023/05/23 05:09:33;;;;;;;172.98;69.60;;;;;;;-144.73;100.00;54389.22;5072283;28;20024;-69
2023/05/23 05:11:59;;;;;;;189.63;79.15;;;;;;;-144.73;100.00;54391.28;5089518;28;20028;-71
2023/05/23 05:14:26;;;;;;;169.88;72.15;;;;;;;-144.73;100.00;54397.44;5078735;28;20047;-70
2023/05/23 05:16:53;;;;;;;167.80;71.85;;;;;;;-144.73;100.00;54368.69;5071698;28;20505;-70
2023/05/23 05:19:19;;;;;;;180.93;74.05;;;;;;;-144.73;100.00;54420.00;5069382;28;20093;-71
2023/05/23 05:21:45;;;;;;;174.50;72.45;;;;;;;-144.73;100.00;54387.19;5081803;28;20097;-71
2023/05/23 05:24:11;;;;;;;191.75;77.47;;;;;;;-144.73;100.00;54393.34;5071846;28;20020;-71
2023/05/23 05:26:36;;;;;;;215.80;84.90;;;;;;;-144.73;100.00;54411.81;5071586;28;20039;-71
2023/05/23 05:29:02;;;;;;;207.00;80.20;;;;;;;-144.73;100.00;54415.91;5071936;28;20031;-71
2023/05/23 05:31:28;;;;;;;176.23;75.25;;;;;;;-144.73;100.00;54370.75;5071385;28;20048;-71
2023/05/23 05:33:53;;;;;;;203.70;79.50;;;;;;;-144.73;100.00;54436.44;5071619;28;20026;-71
2023/05/23 05:36:20;;;;;;;184.25;73.85;;;;;;;-144.73;100.00;54407.69;5071487;28;20036;-71
2023/05/23 05:38:45;;;;;;;199.57;77.03;;;;;;;-144.73;100.00;54420.00;5072307;28;20016;-71
2023/05/23 05:41:11;;;;;;;175.10;75.28;;;;;;;-144.73;100.00;54407.69;5071715;28;20523;-71
2023/05/23 05:43:36;;;;;;;213.90;83.60;;;;;;;-144.73;100.00;54407.69;5071951;28;20048;-70
2023/05/23 05:46:01;;;;;;;193.43;79.45;;;;;;;-144.73;100.00;54346.13;5071631;28;20032;-71
2023/05/23 05:48:27;;;;;;;210.30;82.95;;;;;;;-144.73;100.00;54374.84;5072007;28;20067;-70
2023/05/23 05:50:52;;;;;;;228.80;90.20;;;;;;;-144.73;100.00;54399.50;5070888;28;20032;-70
2023/05/23 05:53:17;;;;;;;203.48;82.40;;;;;;;-144.73;100.00;54385.13;5071766;28;20042;-70
2023/05/23 05:55:43;;;;;;;212.70;86.00;;;;;;;-144.73;100.00;54387.19;5072983;28;20025;-70
2023/05/23 05:58:08;;;;;;;189.50;81.10;;;;;;;-144.73;100.00;54411.81;5075760;28;20028;-71
2023/05/23 06:00:40;;;;;;;207.10;83.75;;;;;;;-144.73;100.00;54411.81;5074917;28;20032;-70
2023/05/23 06:03:08;;;;;;;184.23;77.85;;;;;;;-144.73;100.00;54391.28;5075706;28;20028;-70
2023/05/23 06:05:34;;;;;;;244.85;90.22;;;;;;;-144.73;100.00;54370.75;5092887;28;20024;-70
2023/05/23 06:07:59;;;;;;;247.43;92.50;;;;;;;-144.73;100.00;54378.97;5083637;28;20016;-71
2023/05/23 06:10:25;;;;;;;273.95;96.03;;;;;;;-144.73;100.00;54407.69;5092326;28;20047;-71
2023/05/23 06:12:50;;;;;;;258.92;97.38;;;;;;;-144.73;100.00;54333.81;5075794;28;20020;-71
2023/05/23 06:15:15;;;;;;;237.65;90.53;;;;;;;-144.73;100.00;54415.91;5074379;28;20484;-71
2023/05/23 06:17:41;;;;;;;308.05;108.15;;;;;;;-144.73;100.00;54370.75;5075984;28;20112;-71
2023/05/23 06:20:07;;;;;;;298.73;103.88;;;;;;;-144.73;100.00;54393.34;5074963;28;20445;-72
2023/05/23 06:22:32;;;;;;;316.45;109.40;;;;;;;-144.73;100.00;54407.69;5075135;28;20039;-71
2023/05/23 06:24:58;;;;;;;291.40;103.53;;;;;;;-144.73;100.00;54415.91;5074364;28;20115;-71
2023/05/23 06:27:23;;;;;;;292.80;102.72;;;;;;;-144.73;100.00;54391.28;5093681;28;20050;-71
2023/05/23 06:29:49;;;;;;;278.70;100.05;;;;;;;-144.73;100.00;54374.84;5074971;28;20039;-70
2023/05/23 06:32:14;;;;;;;310.10;107.15;;;;;;;-144.73;100.00;54387.19;5093381;28;20028;-70
2023/05/23 06:34:40;;;;;;;295.35;105.03;;;;;;;-144.73;100.00;54407.69;5092550;28;20028;-70
2023/05/23 06:37:05;;;;;;;334.48;112.38;;;;;;;-144.73;100.00;54391.28;5067102;28;20027;-70
2023/05/23 06:39:30;;;;;;;278.15;99.70;;;;;;;-144.73;100.00;54407.69;5072517;28;20028;-70
2023/05/23 06:41:56;;;;;;;274.08;95.80;;;;;;;-144.73;100.00;54407.69;5065183;28;20052;-69
2023/05/23 06:44:22;;;;;;;270.05;93.88;;;;;;;-144.73;100.00;54407.69;5074979;28;20023;-70
2023/05/23 06:46:47;;;;;;;212.15;83.00;;;;;;;-144.73;100.00;54440.53;5073858;28;20052;-70
2023/05/23 06:49:13;;;;;;;202.00;78.10;;;;;;;-144.73;100.00;54362.53;5074883;28;20035;-70
2023/05/23 06:51:38;;;;;;;155.93;68.05;;;;;;;-144.73;100.00;54407.69;5074166;28;20533;-70
2023/05/23 06:54:04;;;;;;;206.27;78.88;;;;;;;-144.73;100.00;54415.91;5074476;28;20020;-72
2023/05/23 06:56:29;;;;;;;214.43;79.68;;;;;;;-144.73;100.00;54440.53;5090867;28;20043;-72
2023/05/23 06:58:55;;;;;;;243.13;86.57;;;;;;;-144.73;100.00;54378.97;5064296;28;20057;-74
2023/05/23 07:01:20;;;;;;;228.02;84.15;;;;;;;-144.73;100.00;54393.34;5069046;28;20024;-74
2023/05/23 07:03:46;;;;;;;215.68;80.53;;;;;;;-144.73;100.00;54432.31;5066272;28;20013;-74
2023/05/23 07:06:11;;;;;;;159.32;68.82;;;;;;;-144.73;100.00;54424.13;5068124;28;20039;-74
2023/05/23 07:08:37;;;;;;;189.23;73.95;;;;;;;-144.73;100.00;54434.38;5065704;28;20339;-74
2023/05/23 07:11:03;;;;;;;152.63;65.07;;;;;;;-144.73;100.00;54387.19;5087043;28;20032;-74
2023/05/23 07:13:28;;;;;;;128.77;58.95;;;;;;;-144.73;100.00;54407.69;5094787;28;20471;-74
2023/05/23 07:15:55;;;;;;;126.32;59.65;;;;;;;-144.73;100.00;54440.53;5090769;28;20032;-74
2023/05/23 07:18:20;;;;;;;93.82;50.17;;;;;;;-144.73;100.00;54391.28;5092904;28;20023;-74
2023/05/23 07:20:46;;;;;;;73.22;43.63;;;;;;;-144.73;100.00;54448.75;5095524;28;20436;-73
2023/05/23 07:23:11;;;;;;;74.03;43.42;;;;;;;-144.73;100.00;54415.91;5068735;28;20028;-73
2023/05/23 07:25:39;;;;;;;74.82;40.67;;;;;;;-144.73;100.00;54420.00;5082065;28;20035;-73
2023/05/23 07:28:04;;;;;;;68.30;40.42;;;;;;;-144.73;100.00;54440.53;5075600;28;20020;-73
2023/05/23 07:30:29;;;;;;;66.13;35.17;;;;;;;-144.73;100.00;54378.97;5089482;28;20032;-73
2023/05/23 07:32:55;;;;;;;47.92;30.85;;;;;;;-144.73;100.00;54413.84;5070465;28;20020;-72
2023/05/23 07:35:25;;;;;;;46.85;26.58;;;;;;;-144.73;100.00;54456.97;5070514;28;20036;-72
2023/05/23 07:37:53;;;;;;;39.22;24.85;;;;;;;-144.73;100.00;54407.69;5086203;28;20036;-72
2023/05/23 07:40:20;;;;;;;47.85;20.48;;;;;;;-144.73;100.00;54444.66;5050131;28;20038;-72
2023/05/23 07:42:45;;;;;;;31.17;19.95;;;;;;;-144.73;100.00;54417.97;5069648;28;20023;-71
2023/05/23 07:45:11;;;;;;;27.25;19.30;;;;;;;-144.73;100.00;54391.28;5078480;28;20054;-71
2023/05/23 07:47:36;;;;;;;28.13;18.27;;;;;;;-144.73;100.00;54395.38;5068023;28;20070;-71
2023/05/23 07:50:02;;;;;;;30.13;19.75;;;;;;;-144.73;100.00;54389.22;5080798;28;20120;-71
2023/05/23 07:52:31;;;;;;;29.30;16.15;;;;;;;-144.73;100.00;54395.38;5059459;28;20035;-71
2023/05/23 07:54:58;;;;;;;30.63;16.25;;;;;;;-144.73;100.00;54387.19;5066360;28;20146;-71
2023/05/23 07:57:23;;;;;;;29.30;15.68;;;;;;;-144.73;100.00;54428.22;5066963;28;20035;-71
2023/05/23 07:59:50;;;;;;;27.92;15.75;;;;;;;-144.73;100.00;54391.28;5066836;28;20023;-71
2023/05/23 08:02:15;;;;;;;23.98;14.18;;;;;;;-144.73;100.00;54411.81;5091492;28;20028;-70
2023/05/23 08:04:42;;;;;;;23.27;14.43;;;;;;;-144.73;100.00;54426.16;5073930;28;20056;-71
2023/05/23 08:07:08;;;;;;;24.48;13.48;;;;;;;-144.73;100.00;54409.75;5105263;28;20036;-70
2023/05/23 08:09:34;;;;;;;20.45;10.95;;;;;;;-144.73;100.00;54374.84;5105923;28;20031;-70
2023/05/23 08:12:00;;;;;;;20.77;13.00;;;;;;;-144.73;100.00;54407.69;5078526;28;20028;-71
2023/05/23 08:14:25;;;;;;;17.50;11.90;;;;;;;-144.73;100.00;54383.06;5066949;28;20549;-70
2023/05/23 08:16:51;;;;;;;23.20;11.43;;;;;;;-144.73;100.00;54393.34;5085013;28;20036;-69
2023/05/23 08:19:16;;;;;;;20.42;11.70;;;;;;;-144.73;100.00;54395.38;5066680;28;20024;-69
2023/05/23 08:21:42;;;;;;;15.25;10.80;;;;;;;-144.73;100.00;54383.06;5085467;28;20043;-69
2023/05/23 08:24:07;;;;;;;28.92;11.93;;;;;;;-144.73;100.00;54407.69;5085534;28;20072;-69
2023/05/23 08:26:34;;;;;;;20.40;11.07;;;;;;;-144.73;100.00;54442.59;5066813;28;20032;-70
2023/05/23 08:29:01;;;;;;;17.65;10.63;;;;;;;-144.73;100.00;54424.13;5068038;28;20396;-69
2023/05/23 08:31:27;;;;;;;14.32;10.48;;;;;;;-144.73;100.00;54415.91;5066468;28;20032;-70
2023/05/23 08:33:52;;;;;;;16.65;9.77;;;;;;;-144.73;100.00;54417.97;5067667;28;20099;-70
2023/05/23 08:36:18;;;;;;;13.85;9.60;;;;;;;-144.73;100.00;54417.97;5066017;28;20590;-71
2023/05/23 08:38:43;;;;;;;20.70;10.88;;;;;;;-144.73;100.00;54407.69;5067327;28;20537;-70
2023/05/23 08:41:17;;;;;;;15.60;9.77;;;;;;;-144.73;100.00;54411.81;5066685;28;20097;-70
2023/05/23 08:43:43;;;;;;;14.95;8.55;;;;;;;-144.73;100.00;54391.28;5084903;28;20023;-70
2023/05/23 08:46:08;;;;;;;14.43;8.15;;;;;;;-144.73;100.00;54393.34;5084708;28;20380;-70
2023/05/23 08:48:37;;;;;;;12.75;6.80;;;;;;;-144.73;100.00;54407.69;5085266;28;20028;-70
2023/05/23 08:51:03;;;;;;;15.07;7.18;;;;;;;-144.73;100.00;54407.69;5084553;28;20063;-70
2023/05/23 08:53:31;;;;;;;10.82;6.28;;;;;;;-144.73;100.00;54389.22;5085793;28;20024;-70
2023/05/23 08:56:01;;;;;;;15.18;6.60;;;;;;;-144.73;100.00;54417.97;5083943;28;20036;-70
2023/05/23 08:58:29;;;;;;;12.60;6.45;;;;;;;-144.73;100.00;54417.97;5084762;28;20022;-70
2023/05/23 09:00:54;;;;;;;12.13;7.85;;;;;;;-144.73;100.00;54411.81;5067070;28;20028;-70
2023/05/23 09:03:21;;;;;;;16.73;7.28;;;;;;;-144.73;100.00;54428.22;5084889;28;20444;-70
2023/05/23 09:05:48;;;;;;;18.33;7.85;;;;;;;-144.73;100.00;54378.97;5084092;28;20038;-70
2023/05/23 09:08:14;;;;;;;13.90;7.10;;;;;;;-144.73;100.00;54407.69;5079660;28;20043;-70
2023/05/23 09:10:41;;;;;;;13.18;8.07;;;;;;;-144.73;100.00;54424.13;5083309;28;20498;-70
2023/05/23 09:13:08;;;;;;;12.90;9.38;;;;;;;-144.73;100.00;54391.28;5085173;28;20019;-70
2023/05/23 09:15:34;;;;;;;17.27;9.70;;;;;;;-144.73;100.00;54448.75;5066169;28;20113;-70
2023/05/23 09:18:03;;;;;;;22.00;11.05;;;;;;;-144.73;100.00;54420.00;5077538;28;20020;-71
2023/05/23 09:20:28;;;;;;;16.13;10.55;;;;;;;-144.73;100.00;54407.69;5084602;28;20036;-71
2023/05/23 09:22:54;;;;;;;20.55;13.52;;;;;;;-144.73;100.00;54413.84;5073599;28;20104;-71
2023/05/23 09:25:20;;;;;;;20.02;14.60;;;;;;;-144.73;100.00;54407.69;5066208;28;20040;-70
2023/05/23 09:27:45;;;;;;;39.28;20.58;;;;;;;-144.73;100.00;54415.91;5093330;28;20020;-70
2023/05/23 09:30:12;;;;;;;42.20;23.42;;;;;;;-144.73;100.00;54407.69;5085469;28;20119;-71
2023/05/23 09:32:38;;;;;;;46.22;22.63;;;;;;;-144.73;100.00;54424.13;5089236;28;20035;-70
2023/05/23 09:35:05;;;;;;;54.38;25.60;;;;;;;-144.73;100.00;54407.69;5087499;28;20039;-70
2023/05/23 09:37:39;;;;;;;47.47;26.35;;;;;;;-144.73;100.00;54430.28;5071435;28;20047;-70
2023/05/23 09:40:10;;;;;;;48.10;22.58;;;;;;;-144.73;100.00;54411.81;5088656;28;20031;-71
2023/05/23 09:42:42;;;;;;;49.45;23.88;;;;;;;-144.73;100.00;54407.69;5054179;28;20033;-70
2023/05/23 09:45:08;;;;;;;50.58;23.48;;;;;;;-144.73;100.00;54432.31;5086480;28;20055;-71
2023/05/23 09:47:33;;;;;;;42.28;21.60;;;;;;;-144.73;100.00;54413.84;5084638;28;20051;-71
2023/05/23 09:49:58;;;;;;;39.75;21.27;;;;;;;-144.73;100.00;54454.91;5068935;28;20035;-70
2023/05/23 09:52:24;;;;;;;46.17;17.45;;;;;;;-144.73;100.00;54432.31;5070412;28;20024;-71
2023/05/23 09:54:49;;;;;;;30.65;16.92;;;;;;;-144.73;100.00;54391.28;5094023;28;20077;-71
2023/05/23 09:57:16;;;;;;;31.25;15.15;;;;;;;-144.73;100.00;54432.31;5087397;28;20067;-71
2023/05/23 09:59:46;;;;;;;30.02;15.45;;;;;;;-144.73;100.00;54415.91;5069586;28;20028;-70
2023/05/23 10:02:15;;;;;;;27.38;13.75;;;;;;;-144.73;100.00;54465.16;5100942;28;20024;-70
2023/05/23 10:04:42;;;;;;;23.55;13.48;;;;;;;-144.73;100.00;54420.00;5090837;28;20088;-70
2023/05/23 10:07:16;;;;;;;29.83;13.10;;;;;;;-144.73;100.00;54444.66;5069629;28;20024;-70
2023/05/23 10:09:46;;;;;;;19.98;9.32;;;;;;;-144.73;100.00;54434.38;5049945;28;20029;-72
2023/05/23 10:12:31;;;;;;;16.02;8.43;;;;;;;-144.73;100.00;54407.69;5067647;28;20023;-71
2023/05/23 10:15:00;;;;;;;15.18;7.93;;;;;;;-144.73;100.00;54448.75;5074928;28;20115;-71
2023/05/23 10:18:00;;;;;;;14.23;7.38;;;;;;;-144.73;100.00;54432.31;5078586;28;20139;-71
2023/05/23 10:20:30;;;;;;;17.55;8.45;;;;;;;-144.73;100.00;54370.75;5066943;28;20644;-71
2023/05/23 10:22:59;;;;;;;15.53;7.43;;;;;;;-144.73;100.00;54452.84;5078422;28;20029;-72
2023/05/23 10:25:25;;;;;;;17.30;7.90;;;;;;;-144.73;100.00;54430.28;5069068;28;20070;-71
2023/05/23 10:27:57;;;;;;;18.83;7.35;;;;;;;-144.73;100.00;54448.75;5070274;28;20028;-72
2023/05/23 10:30:24;;;;;;;18.23;8.23;;;;;;;-144.73;100.00;54424.13;5061967;28;20044;-71
2023/05/23 10:32:50;;;;;;;13.85;7.60;;;;;;;-144.73;100.00;54420.00;5065987;28;20131;-71
2023/05/23 10:35:22;;;;;;;17.80;7.07;;;;;;;-144.73;100.00;54395.38;5064056;28;20054;-71
2023/05/23 10:38:12;;;;;;;14.40;6.45;;;;;;;-144.73;100.00;54452.84;5085519;28;20062;-71
2023/05/23 10:40:59;;;;;;;17.55;5.97;;;;;;;-144.73;100.00;54428.22;5061070;28;20494;-71
2023/05/23 10:43:46;;;;;;;17.00;5.68;;;;;;;-144.73;100.00;54399.50;5070220;28;20025;-71
2023/05/23 10:46:13;;;;;;;19.23;5.40;;;;;;;-144.73;100.00;54411.81;5089678;28;20170;-71
2023/05/23 10:48:42;;;;;;;15.95;5.65;;;;;;;-144.73;100.00;54428.22;5085120;28;20410;-71
2023/05/23 10:51:13;;;;;;;22.65;7.38;;;;;;;-144.73;100.00;54440.53;5088139;28;20040;-72